Flight Track Log - Related Links

Times and Time Zones

All times are in EDT time to prevent confusion due to time zone crossing. See the AAY956 flight status page for this flight to view local times or setup timezone preferences in your user account.


Time Position Orientation Groundspeed Altitude Reporting Facility
EDT Latitude Longitude Course Direction KTS MPH feet Rate Location/Type
Mon 02:37:27 PM 26.9264 -81.9094 24° Northeast 279 321 4,300  Level Miami Center
Mon 02:38:27 PM 27.0017 -81.9011 North 263 303 7,000 2,350 Climbing Miami Center
Mon 02:39:27 PM 27.0689 -81.8878 10° North 263 303 9,000 1,900 Climbing Miami Center
Mon 02:40:27 PM 27.1528 -81.8797 North 280 322 10,800 1,500 Climbing Miami Center
Mon 02:41:00 PM 26.9927 -81.9620 24° Northeast  Level FlightAware Approximate
Mon 02:41:27 PM 27.2556 -81.8656 North 322 371 12,000  Level Miami Center
Mon 02:42:27 PM 27.3611 -81.8281 18° North 366 421 13,900 2,550 Climbing Miami Center
Mon 02:43:27 PM 27.4692 -81.7811 21° North 394 453 17,100 2,350 Climbing Miami Center
Mon 02:44:27 PM 27.5917 -81.7397 17° North 410 472 18,600 1,700 Climbing Miami Center
Mon 02:45:27 PM 27.7061 -81.6858 23° Northeast 421 484 20,500 1,587 Climbing Miami Center
Mon 02:46:28 PM 27.8119 -81.6458 18° North 437 503 21,800 1,450 Climbing Miami Center
Mon 02:47:27 PM 27.9389 -81.5878 22° Northeast 437 503 23,400 1,311 Climbing Miami Center
Mon 02:48:27 PM 28.0594 -81.5411 19° North 448 516 24,400 1,430 Climbing Miami Center
Mon 02:50:19 PM 28.2775 -81.4478 21° North 460 529 27,500 1,500 Climbing Jacksonville Center
Mon 02:51:19 PM 28.4103 -81.3892 21° North 460 529 28,700 1,100 Climbing Jacksonville Center
Mon 02:52:19 PM 28.5350 -81.3447 17° North 460 529 29,700 1,050 Climbing Jacksonville Center
Mon 02:53:19 PM 28.6561 -81.3500 358° North 443 510 30,800 1,200 Climbing Jacksonville Center
Mon 02:54:19 PM 28.7753 -81.3600 356° North 437 503 32,100 900 Climbing Jacksonville Center
Mon 02:55:19 PM 28.8900 -81.3725 355° North 426 490 32,600 400 Climbing Jacksonville Center
Mon 02:56:19 PM 29.0092 -81.3803 357° North 426 490 32,900 150 Climbing Jacksonville Center
Mon 02:57:19 PM 29.1283 -81.3950 354° North 426 490 32,900  Level Jacksonville Center
Mon 02:58:19 PM 29.2475 -81.4075 355° North 426 490 32,900  Level Jacksonville Center
Mon 02:59:19 PM 29.3686 -81.4175 356° North 426 490 32,900  Level Jacksonville Center
Mon 03:00:19 PM 29.4836 -81.4350 352° North 421 484 32,900  Level Jacksonville Center
Mon 03:01:19 PM 29.6047 -81.4450 356° North 426 490 32,900  Level Jacksonville Center
Mon 03:02:19 PM 29.7219 -81.4528 357° North 426 490 32,900  Level Jacksonville Center
Mon 03:03:19 PM 29.8408 -81.4631 356° North 426 490 32,900  Level Jacksonville Center
Mon 03:04:19 PM 29.9558 -81.4758 355° North 421 484 32,900  Level Jacksonville Center
Mon 03:05:19 PM 30.0772 -81.4836 357° North 426 490 32,900  Level Jacksonville Center
Mon 03:06:19 PM 30.1836 -81.4964 354° North 426 490 32,900  Level Jacksonville Center
Mon 03:07:19 PM 30.3050 -81.5044 357° North 426 490 32,900  Level Jacksonville Center
Mon 03:08:19 PM 30.4158 -81.5364 346° North 420 483 32,900  Level Jacksonville Center
Mon 03:09:19 PM 30.5311 -81.5636 349° North 414 476 32,900  Level Jacksonville Center
Mon 03:10:19 PM 30.6442 -81.5936 347° North 414 476 32,900  Level Jacksonville Center
Mon 03:11:19 PM 30.7572 -81.6283 345° North 414 476 32,900  Level Jacksonville Center
Mon 03:12:19 PM 30.8722 -81.6558 348° North 414 476 32,900  Level Jacksonville Center
Mon 03:13:19 PM 30.9811 -81.6931 344° North 409 471 32,900  Level Jacksonville Center
Mon 03:14:19 PM 31.0964 -81.7183 349° North 409 471 32,900  Level Jacksonville Center
Mon 03:15:19 PM 31.2053 -81.7558 344° North 409 471 32,900 -150 Level Jacksonville Center
Mon 03:16:19 PM 31.3181 -81.7836 348° North 409 471 32,600 -600 Descending Jacksonville Center
Mon 03:17:19 PM 31.4458 -81.8017 353° North 416 479 31,700 -604 Descending Jacksonville Center
Mon 03:18:58 PM 31.6433 -81.8311 353° North 412 474 31,000 -264 Descending Atlanta Center
Mon 03:19:58 PM 31.7586 -81.8506 352° North 418 481 31,000  Level Atlanta Center
Mon 03:20:58 PM 31.8778 -81.8672 353° North 423 487 31,000  Level Atlanta Center
Mon 03:21:58 PM 31.9908 -81.8864 352° North 423 487 31,000  Level Atlanta Center
Mon 03:22:58 PM 32.1058 -81.9033 353° North 423 487 31,000  Level Atlanta Center
Mon 03:23:58 PM 32.2231 -81.9250 351° North 423 487 31,000  Level Atlanta Center
Mon 03:24:58 PM 32.3361 -81.9394 354° North 417 480 31,000  Level Atlanta Center
Mon 03:25:58 PM 32.4533 -81.9614 351° North 417 480 31,000  Level Atlanta Center
Mon 03:26:58 PM 32.5725 -81.9783 353° North 417 480 31,000  Level Atlanta Center
Mon 03:27:58 PM 32.6917 -81.9828 358° North 417 480 31,000  Level Atlanta Center
Mon 03:28:58 PM 32.8147 -81.9850 359° North 422 486 31,000  Level Atlanta Center
Mon 03:29:58 PM 32.9339 -81.9844 360° North 429 494 31,000  Level Atlanta Center
Mon 03:31:58 PM 33.1758 -81.9764 North 424 488 31,000  Level Atlanta Center
Mon 03:32:58 PM 33.2947 -81.9736 North 430 495 31,000  Level Atlanta Center
Mon 03:33:58 PM 33.4178 -81.9706 North 430 495 31,000  Level Atlanta Center
Mon 03:34:58 PM 33.5261 -81.9631 North 430 495 31,000  Level Atlanta Center
Mon 03:35:58 PM 33.6472 -81.9650 359° North 430 495 31,000  Level Atlanta Center
Mon 03:36:58 PM 33.7661 -81.9547 North 430 495 31,000  Level Atlanta Center
Mon 03:37:58 PM 33.8872 -81.9594 358° North 430 495 31,000  Level Atlanta Center
Mon 03:38:58 PM 34.0081 -81.9514 North 425 489 31,000  Level Atlanta Center
Mon 03:39:58 PM 34.1272 -81.9536 359° North 425 489 31,000  Level Atlanta Center
Mon 03:40:58 PM 34.2439 -81.9481 North 419 482 31,000  Level Atlanta Center
Mon 03:41:58 PM 34.3628 -81.9475 360° North 419 482 31,000  Level Atlanta Center
Mon 03:42:58 PM 34.4817 -81.9397 North 424 488 31,000  Level Atlanta Center
Mon 03:43:58 PM 34.5981 -81.9014 15° North 419 482 31,000  Level Atlanta Center
Mon 03:44:58 PM 34.7311 -81.8728 10° North 432 497 31,000  Level Atlanta Center
Mon 03:45:58 PM 34.8450 -81.8319 16° North 432 497 31,000  Level Atlanta Center
Mon 03:46:58 PM 34.9572 -81.8008 13° North 432 497 31,000  Level Atlanta Center
Mon 03:47:58 PM 35.0775 -81.7647 14° North 426 490 31,000  Level Atlanta Center
Mon 03:48:58 PM 35.1936 -81.7311 13° North 431 496 31,000  Level Atlanta Center
Mon 03:49:58 PM 35.3097 -81.6922 15° North 431 496 31,000  Level Atlanta Center
Mon 03:50:58 PM 35.4261 -81.6558 14° North 431 496 31,000  Level Atlanta Center
Mon 03:51:58 PM 35.5400 -81.6217 14° North 431 496 31,000  Level Atlanta Center
Mon 03:52:58 PM 35.6561 -81.5850 14° North 431 496 31,000  Level Atlanta Center
Mon 03:53:58 PM 35.7722 -81.5483 14° North 431 496 31,000  Level Atlanta Center
Mon 03:54:58 PM 35.8883 -81.5089 15° North 431 496 31,000  Level Atlanta Center
Mon 03:55:58 PM 36.0064 -81.4719 14° North 431 496 31,000  Level Atlanta Center
Mon 03:56:58 PM 36.1222 -81.4297 16° North 426 490 31,000  Level Atlanta Center
Mon 03:57:58 PM 36.2383 -81.3950 14° North 426 490 31,000 100 Level Atlanta Center
Mon 03:58:58 PM 36.3522 -81.3553 16° North 431 496 31,200 900 Climbing Atlanta Center
Mon 03:59:58 PM 36.4725 -81.3203 13° North 431 496 32,800 900 Climbing Atlanta Center
Mon 04:00:58 PM 36.5842 -81.2803 16° North 426 490 33,000 100 Climbing Atlanta Center
Mon 04:01:58 PM 36.6939 -81.2453 14° North 414 476 33,000  Level Atlanta Center
Mon 04:04:08 PM 36.9300 -81.1708 14° North 422 486 33,000  Level Indianapolis Center
Mon 04:05:11 PM 37.0403 -81.1269 18° North 426 490 33,000  Level Indianapolis Center
Mon 04:06:13 PM 37.1764 -81.0914 12° North 426 490 33,000  Level Indianapolis Center
Mon 04:07:15 PM 37.2867 -81.0486 17° North 425 489 33,000  Level Indianapolis Center
Mon 04:08:17 PM 37.3956 -81.0167 13° North 418 481 33,000  Level Indianapolis Center
Mon 04:09:19 PM 37.5294 -80.9675 16° North 423 487 33,000  Level Indianapolis Center
Mon 04:10:21 PM 37.6436 -80.9342 13° North 424 488 33,000  Level Indianapolis Center
Mon 04:11:23 PM 37.7547 -80.8939 16° North 425 489 33,000  Level Indianapolis Center
Mon 04:12:25 PM 37.8642 -80.8708 North 423 487 33,000  Level Indianapolis Center
Mon 04:13:27 PM 38.0006 -80.8272 14° North 423 487 33,000  Level Indianapolis Center
Mon 04:14:29 PM 38.1144 -80.7967 12° North 422 486 33,000  Level Indianapolis Center
Mon 04:15:31 PM 38.2256 -80.7628 13° North 417 480 33,000  Level Indianapolis Center
Mon 04:16:34 PM 38.3381 -80.7294 13° North 417 480 33,000  Level Indianapolis Center
Mon 04:17:36 PM 38.4503 -80.7167 North 412 474 33,000  Level Indianapolis Center
Mon 04:18:38 PM 38.5844 -80.6933 North 409 471 33,000  Level Indianapolis Center
Mon 04:19:40 PM 38.6961 -80.6761 North 408 470 33,000  Level Indianapolis Center
Mon 04:20:42 PM 38.8075 -80.6578 North 408 470 33,000  Level Indianapolis Center
Mon 04:21:44 PM 38.9186 -80.6319 10° North 408 470 33,000  Level Indianapolis Center
Mon 04:22:46 PM 39.0306 -80.5944 15° North 412 474 33,000  Level Indianapolis Center
Mon 04:23:48 PM 39.1381 -80.5542 16° North 411 473 33,000  Level Indianapolis Center
Mon 04:24:50 PM 39.2700 -80.5050 16° North 410 472 33,000 -97 Level Indianapolis Center
Mon 04:25:52 PM 39.3797 -80.4597 18° North 413 475 32,800 -968 Descending Indianapolis Center
Mon 04:26:54 PM 39.4928 -80.4225 14° North 416 479 31,000 -864 Descending Indianapolis Center
Mon 04:27:57 PM 39.6028 -80.3714 20° North 419 482 31,000  Level Indianapolis Center
Mon 04:28:59 PM 39.7206 -80.3344 14° North 434 499 31,000  Level Indianapolis Center
Mon 04:30:01 PM 39.8353 -80.2836 19° North 436 502 31,000  Level Indianapolis Center
Mon 04:31:03 PM 39.9744 -80.2378 14° North 428 493 31,000  Level Indianapolis Center
Mon 04:32:05 PM 40.0878 -80.1844 20° North 432 497 31,000  Level Indianapolis Center
Mon 04:33:07 PM 40.2117 -80.1442 14° North 428 493 31,000  Level Indianapolis Center
Mon 04:34:23 PM 40.3464 -80.0872 18° North 427 491 31,000  Level Cleveland Center
Mon 04:35:25 PM 40.4581 -80.0469 15° North 418 481 31,000  Level Cleveland Center
Mon 04:36:27 PM 40.5831 -79.9911 19° North 430 495 31,000  Level Cleveland Center
Mon 04:37:29 PM 40.6975 -79.9497 15° North 430 495 31,000 -339 Level Cleveland Center
Mon 04:38:31 PM 40.8097 -79.8983 19° North 430 495 30,300 -720 Descending Cleveland Center
Mon 04:39:34 PM 40.9236 -79.8622 13° North 421 484 29,500 -624 Descending Cleveland Center
Mon 04:40:36 PM 41.0567 -79.7997 20° North 424 488 29,000 -242 Descending Cleveland Center
Mon 04:41:38 PM 41.1553 -79.7683 13° North 408 470 29,000  Level Cleveland Center
Mon 04:42:40 PM 41.2617 -79.7161 20° North 408 470 29,000  Level Cleveland Center
Mon 04:43:42 PM 41.3883 -79.6719 15° North 396 456 29,000  Level Cleveland Center
Mon 04:44:44 PM 41.4956 -79.6197 20° North 406 467 29,000 -48 Level Cleveland Center
Mon 04:45:46 PM 41.6022 -79.5839 14° North 398 458 28,900 -484 Descending Cleveland Center
Mon 04:46:48 PM 41.7044 -79.5347 20° North 393 452 28,000 -1,113 Descending Cleveland Center
Mon 04:47:50 PM 41.8014 -79.4983 16° North 366 421 26,600 -1,403 Descending Cleveland Center
Mon 04:48:52 PM 41.9172 -79.4464 18° North 367 422 25,100 -1,839 Descending Cleveland Center
Mon 04:49:54 PM 42.0108 -79.4153 14° North 351 404 22,800 -1,984 Descending Cleveland Center
Mon 04:50:56 PM 42.1022 -79.3708 20° North 351 404 21,000 -1,790 Descending Cleveland Center
Mon 04:51:58 PM 42.1914 -79.3375 15° North 337 388 19,100 -2,049 Descending Cleveland Center
Mon 04:52:59 PM 42.2781 -79.2983 18° North 331 381 16,800 -2,098 Descending Cleveland Center
Mon 04:54:01 PM 42.3642 -79.2686 14° North 323 372 14,800 -2,081 Descending Cleveland Center
Mon 04:55:03 PM 42.4636 -79.2211 19° North 322 371 12,500 -1,935 Descending Cleveland Center
Mon 04:56:05 PM 42.5389 -79.1911 16° North 319 367 10,800 -1,548 Descending Cleveland Center
Mon 04:57:07 PM 42.6328 -79.1536 16° North 300 345 9,300 -1,597 Descending Cleveland Center
Mon 04:58:09 PM 42.7050 -79.1206 19° North 289 333 7,500 -1,500 Descending Cleveland Center
Mon 04:59:11 PM 42.7842 -79.0894 16° North 288 331 6,200 -1,403 Descending Cleveland Center
Mon 05:00:13 PM 42.8606 -79.0531 19° North 282 325 4,600 -1,694 Descending Cleveland Center
Mon 05:01:15 PM 42.9361 -79.0103 23° Northeast 287 330 2,700 -919 Descending Cleveland Center
Mon 05:02:17 PM 43.0008 -78.9442 37° Northeast 283 326 2,700 48 Level Cleveland Center
Mon 05:03:19 PM 43.0572 -78.8892 35° Northeast 249 287 2,800 49 Climbing Cleveland Center
Mon 05:04:20 PM 43.0686 -78.8083 79° East 210 242 2,800 -244 Level Cleveland Center
Mon 05:05:22 PM 43.0942 -78.7428 62° Northeast 211 243 2,300 -339 Descending Cleveland Center
Mon 05:06:24 PM 43.1106 -78.7800 301° West 134 154 2,100 -194 Descending Cleveland Center
Mon 05:07:26 PM 43.1081 -78.8308 266° West 132 152 1,900 -242 Descending Cleveland Center
Mon 05:08:28 PM 43.1081 -78.8747 270° West 119 137 1,600 -290 Descending Cleveland Center

Login

Don't have an account? Register now (free) for customized features, flight alerts, and more!